Terminal Island, California
Current Conditions -  °F | °C
As of 2:53 PM on Wednesday 22 Oct 2014 (Local Time) from KLGB Reporting Station
Clear Clear  
Wind Chill: 81°   Ceiling: Unl
Heat Index: 82°   Visibility: 9mi
Dew Point: 62°   Wind: 7mph
Humidity: 52%   Direction: NA
Pressure: 29.88"   Gusts: NA
Location:  33.7377°N, 118.291°W
Report Text: KLGB 222153Z VRB06KT 9SM CLR 27/17 A2988 RMK AO2 SLP119 T02720167
Loading
Personal Weather Stations






























Interactive Weather Map
Tropical Storm Tracking
New forecast layout! Learn more

10-Day Weather Forecast

Advertisements
Track Severe Weather on mobile